Time;durP1;ratioP1;P1;durP2;ratioP2;P2;SDS_P1;SDS_P2;PMS_P1;PMS_P2;Temp;Humidity;BMP_temperature;BMP_pressure;BME280_temperature;BME280_humidity;BME280_pressure;Samples;Min_cycle;Max_cycle;Signal;HPM_P1;HPM_P2
2022/02/28 00:00:22;;;;;;;;;;;1.90;61.50;;;0.05;57.92;97248.56;4982863;28;20421;-70
2022/02/28 00:02:48;;;;;;;;;;;1.90;61.50;;;0.03;58.56;97245.22;4954323;28;19973;-72
2022/02/28 00:05:14;;;;;;;;;;;1.80;61.80;;;-0.02;58.02;97241.16;4953338;28;19922;-70
2022/02/28 00:07:40;;;;;;;;;;;1.80;61.70;;;-0.04;58.27;97232.66;4973017;28;19925;-70
2022/02/28 00:10:06;;;;;;;;;;;1.80;62.00;;;-0.07;58.69;97235.44;4953893;28;19932;-70
2022/02/28 00:12:32;;;;;;;;;;;1.80;62.10;;;-0.10;59.19;97235.63;4968745;28;19930;-69
2022/02/28 00:14:57;;;;;;;;;;;1.80;62.10;;;-0.13;58.37;97235.81;4969279;28;19969;-70
2022/02/28 00:17:23;;;;;;;;;;;1.70;61.90;;;-0.14;58.42;97233.34;4968222;28;19922;-71
2022/02/28 00:19:49;;;;;;;;;;;1.70;62.10;;;-0.17;58.78;97231.78;4970502;28;19928;-71
2022/02/28 00:22:14;;;;;;;;;;;1.70;61.90;;;-0.18;58.34;97222.38;4966508;28;19933;-70
2022/02/28 00:24:40;;;;;;;;;;;1.70;61.70;;;-0.20;59.14;97228.56;4956397;28;20404;-71
2022/02/28 00:27:06;;;;;;;;;;;1.70;61.70;;;-0.22;58.14;97226.06;4953988;28;20003;-71
2022/02/28 00:29:31;;;;;;;;;;;1.60;61.90;;;-0.27;57.94;97228.09;4971006;28;19922;-69
2022/02/28 00:31:57;;;;;;;;;;;1.60;61.80;;;-0.31;58.00;97224.03;4954017;28;19926;-71
2022/02/28 00:34:23;;;;;;;;;;;1.60;61.90;;;-0.32;58.38;97219.78;4970511;28;19984;-71
2022/02/28 00:36:48;;;;;;;;;;;1.50;61.80;;;-0.33;58.25;97215.53;4968912;28;20317;-71
2022/02/28 00:39:14;;;;;;;;;;;1.50;61.80;;;-0.35;58.06;97215.63;4969899;28;19922;-70
2022/02/28 00:41:40;;;;;;;;;;;1.50;61.80;;;-0.35;58.42;97230.31;4969442;28;19926;-70
2022/02/28 00:44:05;;;;;;;;;;;1.50;61.90;;;-0.35;58.32;97215.63;4970853;28;19922;-70
2022/02/28 00:46:31;;;;;;;;;;;1.50;61.90;;;-0.34;58.14;97206.97;4985173;28;20016;-71
2022/02/28 00:48:56;;;;;;;;;;;1.50;61.80;;;-0.34;58.12;97206.13;4969446;28;20038;-70
2022/02/28 00:51:22;;;;;;;;;;;1.50;61.50;;;-0.32;57.97;97209.44;4969430;28;20404;-71
2022/02/28 00:53:48;;;;;;;;;;;1.50;61.20;;;-0.34;57.41;97201.78;4969759;28;19945;-70
2022/02/28 00:56:13;;;;;;;;;;;1.50;61.00;;;-0.34;57.45;97203.53;4985024;28;19976;-71
2022/02/28 00:58:39;;;;;;;;;;;1.50;61.00;;;-0.35;57.00;97197.53;4969041;28;19922;-69
2022/02/28 01:01:05;;;;;;;;;;;1.50;60.90;;;-0.35;57.79;97204.47;4970089;28;19923;-71
2022/02/28 01:03:30;;;;;;;;;;;1.50;61.10;;;-0.37;57.90;97201.16;4969946;28;19988;-71
2022/02/28 01:05:56;;;;;;;;;;;1.40;61.10;;;-0.40;58.05;97204.75;4985125;28;19969;-71
2022/02/28 01:08:22;;;;;;;;;;;1.40;61.10;;;-0.41;57.48;97203.09;4969463;28;19938;-72
2022/02/28 01:10:48;;;;;;;;;;;1.40;61.10;;;-0.42;58.07;97205.78;4958103;28;19934;-70
2022/02/28 01:13:13;;;;;;;;;;;1.40;61.20;;;-0.43;57.87;97206.72;4965606;28;20353;-71
2022/02/28 01:15:39;;;;;;;;;;;1.40;61.60;;;-0.41;58.36;97199.69;4959645;28;19922;-70
2022/02/28 01:18:05;;;;;;;;;;;1.40;61.60;;;-0.43;58.44;97197.19;4986393;28;19926;-70
2022/02/28 01:20:31;;;;;;;;;;;1.40;61.80;;;-0.45;59.34;97200.81;4953137;28;19930;-70
2022/02/28 01:22:56;;;;;;;;;;;1.40;62.40;;;-0.49;58.65;97194.13;4936659;28;19984;-70
2022/02/28 01:25:22;;;;;;;;;;;1.30;62.30;;;-0.54;59.06;97185.84;4969607;28;19968;-70
2022/02/28 01:27:48;;;;;;;;;;;1.40;62.20;;;-0.56;58.40;97190.28;4969596;28;19937;-71
2022/02/28 01:30:14;;;;;;;;;;;1.30;62.00;;;-0.58;59.08;97189.53;4952771;28;20303;-71
2022/02/28 01:32:41;;;;;;;;;;;1.30;62.10;;;-0.57;58.99;97196.38;4968646;28;19922;-71
2022/02/28 01:35:07;;;;;;;;;;;1.30;62.20;;;-0.58;58.42;97190.38;4970266;28;19922;-71
2022/02/28 01:37:33;;;;;;;;;;;1.30;62.00;;;-0.60;58.04;97187.06;4952979;28;20283;-71
2022/02/28 01:39:58;;;;;;;;;;;1.20;61.10;;;-0.63;58.22;97190.66;4969006;28;19972;-71
2022/02/28 01:42:24;;;;;;;;;;;1.20;61.10;;;-0.64;57.58;97190.75;4970471;28;20308;-71
2022/02/28 01:44:50;;;;;;;;;;;1.20;61.20;;;-0.64;57.85;97186.41;4968481;28;20401;-71
2022/02/28 01:47:15;;;;;;;;;;;1.20;61.10;;;-0.66;58.06;97185.69;4968636;28;19922;-72
2022/02/28 01:49:41;;;;;;;;;;;1.30;61.30;;;-0.66;58.23;97190.03;4970823;28;19925;-71
2022/02/28 01:52:07;;;;;;;;;;;1.20;61.70;;;-0.69;58.88;97191.00;4969618;28;19929;-70
2022/02/28 01:54:33;;;;;;;;;;;1.10;62.50;;;-0.72;58.98;97188.63;4970081;28;19918;-71
2022/02/28 01:56:58;;;;;;;;;;;1.10;62.80;;;-0.76;59.29;97194.91;4952253;28;19930;-70
2022/02/28 01:59:24;;;;;;;;;;;1.10;63.10;;;-0.79;59.49;97194.25;4969125;28;19918;-70
2022/02/28 02:01:50;;;;;;;;;;;1.10;63.30;;;-0.84;59.60;97197.13;4968375;28;19926;-70
2022/02/28 02:04:24;;;;;;;;;;;1.10;63.40;;;-0.86;60.28;97198.97;4968552;28;19988;-70
2022/02/28 02:06:50;;;;;;;;;;;1.00;63.70;;;-0.93;60.06;97192.47;4968533;28;19930;-71
2022/02/28 02:09:16;;;;;;;;;;;1.00;63.90;;;-0.97;60.41;97196.19;4952716;28;19926;-72
2022/02/28 02:11:41;;;;;;;;;;;1.00;64.10;;;-1.00;59.96;97199.78;4968807;28;20319;-71
2022/02/28 02:14:07;;;;;;;;;;;0.90;64.00;;;-1.02;60.64;97203.38;4970303;28;19929;-70
2022/02/28 02:16:33;;;;;;;;;;;0.90;64.20;;;-1.04;60.34;97200.88;4971369;28;19922;-69
2022/02/28 02:18:59;;;;;;;;;;;0.90;64.10;;;-1.04;60.22;97194.88;4987750;28;19922;-68
2022/02/28 02:21:25;;;;;;;;;;;0.90;64.10;;;-1.06;60.01;97197.56;4955623;28;19934;-70
2022/02/28 02:23:50;;;;;;;;;;;0.80;63.90;;;-1.07;60.22;97202.81;4972723;28;19922;-69
2022/02/28 02:26:16;;;;;;;;;;;0.80;63.90;;;-1.13;60.89;97205.72;4972853;28;20379;-70
2022/02/28 02:28:42;;;;;;;;;;;0.80;63.80;;;-1.14;60.09;97204.06;4971601;28;19928;-71
2022/02/28 02:31:07;;;;;;;;;;;0.80;63.70;;;-1.15;60.32;97207.59;4968050;28;19922;-71
2022/02/28 02:33:33;;;;;;;;;;;0.80;63.70;;;-1.16;60.19;97205.91;4952549;29;20013;-71
2022/02/28 02:36:00;;;;;;;;;;;0.80;63.60;;;-1.18;60.00;97207.75;4961873;28;19922;-71
2022/02/28 02:38:26;;;;;;;;;;;0.70;63.60;;;-1.21;59.68;97203.63;4972145;28;20429;-70
2022/02/28 02:40:52;;;;;;;;;;;0.70;63.50;;;-1.24;60.02;97204.63;4971000;28;19929;-70
2022/02/28 02:43:18;;;;;;;;;;;0.70;63.60;;;-1.24;60.43;97204.63;4972731;28;19930;-70
2022/02/28 02:45:43;;;;;;;;;;;0.70;63.90;;;-1.21;60.80;97207.94;4971053;28;20281;-70
2022/02/28 02:48:19;;;;;;;;;;;0.70;63.90;;;-1.22;60.50;97207.13;4971052;28;20333;-71
2022/02/28 02:50:45;;;;;;;;;;;0.70;63.80;;;-1.21;60.65;97203.63;4956159;28;20349;-71
2022/02/28 02:53:11;;;;;;;;;;;0.70;64.10;;;-1.23;60.71;97203.69;4971479;28;19981;-71
2022/02/28 02:55:37;;;;;;;;;;;0.70;64.20;;;-1.22;61.14;97212.28;4968566;28;19922;-71
2022/02/28 02:58:03;;;;;;;;;;;0.70;64.40;;;-1.20;60.32;97202.69;4971268;28;19922;-70
2022/02/28 03:00:28;;;;;;;;;;;0.70;64.20;;;-1.19;60.94;97206.09;4972599;28;19922;-71
2022/02/28 03:02:54;;;;;;;;;;;0.70;64.30;;;-1.22;60.25;97199.38;4970514;28;19933;-70
2022/02/28 03:05:20;;;;;;;;;;;0.70;64.20;;;-1.24;60.30;97207.22;4971084;28;19922;-72
2022/02/28 03:07:45;;;;;;;;;;;0.70;64.10;;;-1.24;61.00;97217.53;4987274;28;19922;-71
2022/02/28 03:10:11;;;;;;;;;;;0.60;64.30;;;-1.24;61.50;97212.38;4970292;28;19933;-71
2022/02/28 03:12:39;;;;;;;;;;;0.70;64.40;;;-1.23;61.19;97221.78;4971190;28;19922;-70
2022/02/28 03:15:04;;;;;;;;;;;0.70;64.60;;;-1.21;60.93;97228.59;4954212;28;19973;-71
2022/02/28 03:17:30;;;;;;;;;;;0.60;64.60;;;-1.23;61.41;97223.53;4987370;28;19926;-71
2022/02/28 03:19:56;;;;;;;;;;;0.70;64.60;;;-1.23;60.99;97226.09;4972072;28;20367;-71
2022/02/28 03:22:21;;;;;;;;;;;0.70;64.60;;;-1.23;61.81;97234.69;4970643;28;19926;-70
2022/02/28 03:24:47;;;;;;;;;;;0.70;65.10;;;-1.20;61.70;97240.59;4954189;28;20309;-71
2022/02/28 03:27:13;;;;;;;;;;;0.80;65.40;;;-1.21;61.70;97244.09;4987143;28;19988;-71
2022/02/28 03:29:38;;;;;;;;;;;0.70;64.70;;;-1.23;61.81;97234.69;4972408;28;19929;-71
2022/02/28 03:32:04;;;;;;;;;;;0.70;64.90;;;-1.24;61.35;97232.19;4971957;28;19922;-71
2022/02/28 03:34:30;;;;;;;;;;;0.70;64.90;;;-1.27;61.71;97228.03;4971637;28;20028;-71
2022/02/28 03:36:58;;;;;;;;;;;0.70;64.60;;;-1.29;61.15;97232.47;4953618;28;20402;-71
2022/02/28 03:39:24;;;;;;;;;;;0.60;64.70;;;-1.31;61.68;97229.13;4955054;28;19934;-71
2022/02/28 03:41:53;;;;;;;;;;;0.60;64.80;;;-1.31;61.58;97234.31;4970529;28;19984;-70
2022/02/28 03:44:22;;;;;;;;;;;0.60;64.80;;;-1.34;61.50;97238.81;4954558;28;19933;-70
2022/02/28 03:46:48;;;;;;;;;;;0.60;64.80;;;-1.38;61.81;97232.97;4937943;28;19930;-70
2022/02/28 03:49:15;;;;;;;;;;;0.50;65.00;;;-1.41;61.53;97238.31;4953927;28;19926;-71
2022/02/28 03:51:41;;;;;;;;;;;0.50;65.20;;;-1.42;61.98;97235.81;4972034;28;19964;-70
2022/02/28 03:54:10;;;;;;;;;;;0.40;65.40;;;-1.45;62.14;97229.09;4937723;28;19923;-70
2022/02/28 03:56:40;;;;;;;;;;;0.50;65.20;;;-1.46;61.84;97230.00;4970470;28;19969;-70
2022/02/28 03:59:06;;;;;;;;;;;0.40;65.40;;;-1.47;61.97;97230.94;4970240;28;19954;-70
2022/02/28 04:01:32;;;;;;;;;;;0.40;65.70;;;-1.48;61.91;97231.84;4977733;28;20013;-70
2022/02/28 04:03:57;;;;;;;;;;;0.50;65.70;;;-1.48;62.16;97231.84;4969919;28;19926;-69
2022/02/28 04:06:23;;;;;;;;;;;0.50;65.60;;;-1.47;62.06;97223.19;4970984;28;20001;-70
2022/02/28 04:08:49;;;;;;;;;;;0.50;65.30;;;-1.46;61.99;97229.19;4970695;28;19922;-71
2022/02/28 04:11:14;;;;;;;;;;;0.50;65.50;;;-1.50;61.80;97217.38;4970906;28;19933;-70
2022/02/28 04:13:40;;;;;;;;;;;0.40;65.20;;;-1.53;62.27;97226.13;4970409;28;19922;-70
2022/02/28 04:16:06;;;;;;;;;;;0.40;65.30;;;-1.54;61.68;97216.72;4970988;28;19922;-70
2022/02/28 04:18:32;;;;;;;;;;;0.40;65.40;;;-1.55;61.85;97220.22;4970180;28;19988;-70
2022/02/28 04:20:57;;;;;;;;;;;0.40;65.30;;;-1.53;62.00;97226.13;4968800;28;19977;-70
2022/02/28 04:23:23;;;;;;;;;;;0.40;65.50;;;-1.54;62.26;97227.03;4954247;28;19922;-70
2022/02/28 04:25:49;;;;;;;;;;;0.40;65.60;;;-1.57;62.40;97224.63;4969170;28;20397;-71
2022/02/28 04:28:15;;;;;;;;;;;0.40;65.60;;;-1.57;63.00;97220.31;4953672;28;19922;-71
2022/02/28 04:30:40;;;;;;;;;;;0.40;66.70;;;-1.56;62.86;97221.13;4980414;28;20264;-69
2022/02/28 04:33:06;;;;;;;;;;;0.40;66.40;;;-1.58;62.53;97226.38;4965935;28;19922;-71
2022/02/28 04:35:32;;;;;;;;;;;0.40;66.00;;;-1.58;62.67;97230.72;4950297;28;19922;-71
2022/02/28 04:37:57;;;;;;;;;;;0.40;66.10;;;-1.60;63.01;97230.78;4944863;28;19978;-69
2022/02/28 04:40:23;;;;;;;;;;;0.30;66.10;;;-1.60;62.99;97235.09;4966861;28;19929;-69
2022/02/28 04:42:49;;;;;;;;;;;0.40;66.30;;;-1.63;62.82;97224.97;4952016;28;19926;-70
2022/02/28 04:45:14;;;;;;;;;;;0.40;66.40;;;-1.62;63.49;97234.38;4962494;28;19926;-69
2022/02/28 04:47:40;;;;;;;;;;;0.40;66.20;;;-1.63;62.14;97227.53;4967227;28;19922;-70
2022/02/28 04:50:06;;;;;;;;;;;0.40;65.90;;;-1.67;62.83;97220.91;4962793;28;19918;-70
2022/02/28 04:52:31;;;;;;;;;;;0.30;65.90;;;-1.69;62.41;97220.16;4968321;28;19930;-70
2022/02/28 04:54:57;;;;;;;;;;;0.30;65.80;;;-1.71;62.72;97229.72;4950060;28;19949;-71
2022/02/28 04:57:23;;;;;;;;;;;0.30;66.00;;;-1.70;62.64;97236.56;4965843;28;19922;-71
2022/02/28 04:59:48;;;;;;;;;;;0.20;66.10;;;-1.69;62.83;97235.63;4950204;28;19918;-70
2022/02/28 05:02:14;;;;;;;;;;;0.30;66.10;;;-1.72;62.54;97223.75;4968731;28;20291;-70
2022/02/28 05:04:40;;;;;;;;;;;0.30;66.10;;;-1.70;62.76;97226.22;4984364;28;19928;-69
2022/02/28 05:07:05;;;;;;;;;;;0.30;66.00;;;-1.70;62.75;97223.66;4969950;28;19922;-71
2022/02/28 05:09:31;;;;;;;;;;;0.20;66.10;;;-1.69;62.98;97227.91;4985574;28;19922;-70
2022/02/28 05:11:57;;;;;;;;;;;0.30;66.10;;;-1.70;62.86;97232.22;4969285;28;20016;-69
2022/02/28 05:14:22;;;;;;;;;;;0.30;66.30;;;-1.70;62.55;97233.97;4969051;28;19964;-72
2022/02/28 05:16:48;;;;;;;;;;;0.30;66.30;;;-1.73;63.10;97236.72;4969945;28;19976;-70
2022/02/28 05:19:14;;;;;;;;;;;0.20;66.50;;;-1.76;63.09;97237.72;4966111;28;20449;-71
2022/02/28 05:21:39;;;;;;;;;;;0.20;66.60;;;-1.77;63.25;97240.41;4955520;28;19933;-71
2022/02/28 05:24:05;;;;;;;;;;;0.20;66.60;;;-1.80;62.99;97236.25;4985166;28;20394;-70
2022/02/28 05:26:31;;;;;;;;;;;0.20;66.70;;;-1.80;63.38;97236.25;4968882;28;19918;-71
2022/02/28 05:28:57;;;;;;;;;;;0.10;66.70;;;-1.82;63.62;97232.06;4963437;28;19928;-70
2022/02/28 05:31:22;;;;;;;;;;;0.10;66.70;;;-1.86;63.15;97236.56;4970225;28;19928;-69
2022/02/28 05:33:48;;;;;;;;;;;0.10;66.60;;;-1.87;63.75;97233.16;4968897;28;19953;-70
2022/02/28 05:36:14;;;;;;;;;;;0.10;66.70;;;-1.88;63.24;97231.50;4965022;28;20384;-68
2022/02/28 05:38:39;;;;;;;;;;;0.10;66.70;;;-1.85;63.70;97227.91;4951886;28;19922;-69
2022/02/28 05:41:05;;;;;;;;;;;0.10;66.90;;;-1.86;63.33;97239.97;4960377;28;19922;-69
2022/02/28 05:43:31;;;;;;;;;;;0.20;66.70;;;-1.89;63.36;97232.41;4968954;28;19922;-69
2022/02/28 05:45:56;;;;;;;;;;;0.10;66.80;;;-1.89;63.92;97237.56;4984732;28;20020;-68
2022/02/28 05:48:22;;;;;;;;;;;0.10;66.60;;;-1.92;63.35;97240.31;4971978;28;19922;-71
2022/02/28 05:50:48;;;;;;;;;;;0.10;66.80;;;-1.95;63.77;97242.22;4956082;28;20435;-68
2022/02/28 05:53:13;;;;;;;;;;;0.00;66.80;;;-1.96;64.07;97246.56;4972605;28;19941;-70
2022/02/28 05:55:39;;;;;;;;;;;0.00;66.90;;;-1.96;63.60;97249.13;4972255;28;19941;-71
2022/02/28 05:58:05;;;;;;;;;;;0.10;66.80;;;-1.97;63.24;97251.81;4973738;28;19930;-71
2022/02/28 06:00:30;;;;;;;;;;;0.00;66.80;;;-1.99;63.30;97246.72;4972315;28;19922;-67
2022/02/28 06:02:56;;;;;;;;;;;0.00;66.80;;;-2.00;63.31;97247.66;4972178;28;19922;-71
2022/02/28 06:05:22;;;;;;;;;;;0.00;66.90;;;-2.01;63.52;97258.03;4969470;28;19929;-64
2022/02/28 06:07:47;;;;;;;;;;;0.00;66.90;;;-2.00;64.33;97259.72;4952826;28;19981;-70
2022/02/28 06:10:13;;;;;;;;;;;0.00;67.10;;;-2.01;64.03;97261.47;4971345;28;20433;-68
2022/02/28 06:12:39;;;;;;;;;;;0.10;67.00;;;-2.02;63.91;97267.53;4970472;28;20670;-69
2022/02/28 06:15:05;;;;;;;;;;;0.10;67.00;;;-2.01;64.42;97270.94;4971043;28;19926;-68
2022/02/28 06:17:32;;;;;;;;;;;0.10;67.20;;;-2.03;63.70;97276.19;4970710;28;20347;-68
2022/02/28 06:19:58;;;;;;;;;;;0.00;66.90;;;-2.02;64.05;97285.56;4954777;28;19926;-70
2022/02/28 06:22:24;;;;;;;;;;;0.10;67.00;;;-2.03;64.07;97281.34;4970378;28;19926;-69
2022/02/28 06:24:49;;;;;;;;;;;0.00;66.90;;;-2.02;63.87;97288.16;4972407;28;20034;-67
2022/02/28 06:27:15;;;;;;;;;;;0.00;67.10;;;-2.03;63.36;97291.66;4987192;28;19932;-70
2022/02/28 06:29:43;;;;;;;;;;;0.00;67.00;;;-2.04;63.75;97289.94;4972662;28;19969;-68
2022/02/28 06:32:09;;;;;;;;;;;0.00;67.40;;;-2.07;63.40;97294.44;4955344;28;19922;-67
2022/02/28 06:34:35;;;;;;;;;;;0.00;67.20;;;-2.08;64.28;97293.63;4972527;28;19966;-67
2022/02/28 06:37:00;;;;;;;;;;;0.00;67.30;;;-2.09;63.88;97288.53;4969970;28;19988;-66
2022/02/28 06:39:26;;;;;;;;;;;0.00;67.30;;;-2.10;64.09;97287.72;4971299;28;19926;-72
2022/02/28 06:41:53;;;;;;;;;;;0.00;67.30;;;-2.10;63.95;97295.44;4971106;28;19922;-68
2022/02/28 06:44:19;;;;;;;;;;;0.00;67.20;;;-2.09;64.34;97291.94;4970995;28;19933;-68
2022/02/28 06:46:44;;;;;;;;;;;0.00;67.30;;;-2.09;64.22;97299.69;4971893;28;20020;-66
2022/02/28 06:49:10;;;;;;;;;;;0.10;67.20;;;-2.06;64.35;97299.50;4971944;28;19929;-67
2022/02/28 06:51:36;;;;;;;;;;;0.10;67.20;;;-2.03;64.38;97294.22;4971576;28;19918;-69
2022/02/28 06:54:02;;;;;;;;;;;0.20;67.10;;;-1.96;64.60;97297.28;4987412;28;19922;-67
2022/02/28 06:56:28;;;;;;;;;;;0.30;67.00;;;-1.90;64.21;97302.94;4970165;28;19918;-70
2022/02/28 06:58:54;;;;;;;;;;;0.50;66.60;;;-1.84;64.62;97301.78;4970212;28;19922;-70
2022/02/28 07:01:20;;;;;;;;;;;0.60;66.00;;;-1.74;64.44;97307.28;4970304;28;19922;-66
2022/02/28 07:03:45;;;;;;;;;;;0.80;65.30;;;-1.65;63.97;97302.44;4954869;28;19949;-67
2022/02/28 07:06:11;;;;;;;;;;;1.00;64.50;;;-1.51;63.64;97301.69;4975123;28;20343;-66
2022/02/28 07:08:38;;;;;;;;;;;1.10;64.00;;;-1.38;63.18;97304.41;4987548;28;19938;-72
2022/02/28 07:11:03;;;;;;;;;;;1.40;63.30;;;-1.24;62.57;97294.97;4967032;28;19946;-69
2022/02/28 07:13:30;;;;;;;;;;;1.50;62.30;;;-1.08;62.54;97307.84;4966366;28;20378;-72
2022/02/28 07:15:56;;;;;;;;;;;1.80;62.30;;;-0.92;62.96;97302.63;4970498;28;19922;-65
2022/02/28 07:18:22;;;;;;;;;;;2.00;62.10;;;-0.76;62.69;97305.97;4986587;28;20353;-67
2022/02/28 07:20:48;;;;;;;;;;;2.20;61.60;;;-0.60;62.20;97308.50;4971532;28;20500;-67
2022/02/28 07:23:13;;;;;;;;;;;2.40;60.70;;;-0.42;61.78;97301.41;4954323;28;19930;-67
2022/02/28 07:25:39;;;;;;;;;;;2.70;60.20;;;-0.21;62.10;97305.31;4970584;28;19918;-68
2022/02/28 07:28:05;;;;;;;;;;;3.10;59.70;;;0.02;62.08;97300.47;4986471;28;19918;-66
2022/02/28 07:30:30;;;;;;;;;;;3.30;59.40;;;0.21;61.26;97295.78;4958224;28;20390;-67
2022/02/28 07:32:56;;;;;;;;;;;3.60;58.20;;;0.44;61.23;97299.53;4967913;28;19973;-67
2022/02/28 07:35:22;;;;;;;;;;;3.90;57.70;;;0.67;60.27;97300.66;4963267;28;19948;-66
2022/02/28 07:37:47;;;;;;;;;;;4.20;56.10;;;0.91;60.46;97301.69;4953987;28;19933;-69
2022/02/28 07:40:13;;;;;;;;;;;4.60;55.30;;;1.14;58.94;97313.97;4971771;28;19988;-68
2022/02/28 07:42:39;;;;;;;;;;;4.90;53.80;;;1.39;57.76;97302.81;4986433;28;19926;-70
2022/02/28 07:45:05;;;;;;;;;;;5.20;51.90;;;1.63;57.55;97309.88;4969770;28;19918;-66
2022/02/28 07:47:31;;;;;;;;;;;5.60;50.70;;;1.84;56.73;97305.81;4971186;28;19921;-67
2022/02/28 07:49:57;;;;;;;;;;;6.00;48.90;;;2.08;55.73;97303.28;4970319;28;19922;-66
2022/02/28 07:52:22;;;;;;;;;;;6.40;48.00;;;2.33;55.42;97311.00;4971628;28;19922;-68
2022/02/28 07:54:48;;;;;;;;;;;6.80;47.20;;;2.58;54.93;97310.09;4986010;28;19926;-68
2022/02/28 07:57:14;;;;;;;;;;;7.20;45.60;;;2.79;53.54;97310.31;4970970;28;19918;-68
2022/02/28 07:59:40;;;;;;;;;;;7.40;44.40;;;3.03;53.52;97305.09;4948475;28;19922;-66
2022/02/28 08:02:07;;;;;;;;;;;7.80;43.90;;;3.24;53.01;97313.09;4958871;28;20024;-68
2022/02/28 08:04:32;;;;;;;;;;;8.10;42.90;;;3.46;51.97;97310.53;4937584;28;19922;-70
2022/02/28 08:06:58;;;;;;;;;;;8.40;41.60;;;3.67;51.84;97310.69;4971143;28;20419;-65
2022/02/28 08:09:24;;;;;;;;;;;8.70;41.20;;;3.84;51.34;97307.63;4965519;28;19922;-69
2022/02/28 08:11:50;;;;;;;;;;;8.90;40.40;;;4.08;51.33;97304.94;4986397;28;19918;-67
2022/02/28 08:14:16;;;;;;;;;;;9.20;40.50;;;4.30;51.32;97301.47;4970893;28;19988;-71
2022/02/28 08:16:42;;;;;;;;;;;9.60;40.10;;;4.52;50.87;97303.19;4970311;28;19977;-67
2022/02/28 08:19:07;;;;;;;;;;;9.80;39.00;;;4.75;50.47;97306.56;4975611;28;19928;-67
2022/02/28 08:21:33;;;;;;;;;;;10.10;38.70;;;4.95;49.67;97299.75;4971305;28;19926;-67
2022/02/28 08:23:59;;;;;;;;;;;10.40;38.10;;;5.17;49.68;97292.66;4970773;28;19922;-69
2022/02/28 08:26:24;;;;;;;;;;;10.70;37.50;;;5.41;48.93;97286.34;4967599;28;19922;-67
2022/02/28 08:28:50;;;;;;;;;;;11.00;36.80;;;5.61;49.12;97289.91;4970362;28;20271;-66
2022/02/28 08:31:16;;;;;;;;;;;11.20;35.80;;;5.82;49.13;97296.78;4969496;28;19929;-67
2022/02/28 08:33:41;;;;;;;;;;;11.50;36.00;;;6.05;47.55;97297.47;4970361;28;19922;-69
2022/02/28 08:36:07;;;;;;;;;;;11.70;35.40;;;6.30;47.63;97300.56;4968082;28;19926;-70
2022/02/28 08:38:33;;;;;;;;;;;12.10;34.00;;;6.46;47.28;97303.50;4952252;28;19977;-70
2022/02/28 08:40:58;;;;;;;;;;;12.20;34.40;;;6.73;47.33;97298.47;4966240;28;19942;-68
2022/02/28 08:43:26;;;;;;;;;;;12.60;33.50;;;6.97;47.35;97294.63;4965671;28;19923;-68
2022/02/28 08:45:52;;;;;;;;;;;12.80;33.30;;;7.23;46.85;97300.97;4952314;28;19978;-68
2022/02/28 08:48:18;;;;;;;;;;;13.10;32.80;;;7.50;46.00;97296.84;4966829;28;19926;-68
2022/02/28 08:50:44;;;;;;;;;;;13.30;32.50;;;7.85;45.38;97293.56;4966752;28;19922;-67
2022/02/28 08:53:09;;;;;;;;;;;13.80;31.70;;;8.13;44.72;97289.19;4968842;28;20007;-73
2022/02/28 08:55:35;;;;;;;;;;;14.10;31.10;;;8.46;45.15;97287.84;4962517;28;20377;-69
2022/02/28 08:58:01;;;;;;;;;;;14.50;31.00;;;8.75;43.82;97295.53;4949946;28;19923;-68
2022/02/28 09:00:28;;;;;;;;;;;14.70;30.30;;;9.02;44.20;97298.09;4952704;28;19929;-70
2022/02/28 09:02:53;;;;;;;;;;;14.80;29.90;;;9.26;42.58;97294.84;4969287;28;19961;-74
2022/02/28 09:05:19;;;;;;;;;;;14.80;29.50;;;9.43;42.67;97293.19;4969659;28;20670;-70
2022/02/28 09:07:46;;;;;;;;;;;14.60;29.30;;;9.61;41.82;97299.25;4982395;28;20378;-68
2022/02/28 09:10:12;;;;;;;;;;;15.20;29.10;;;9.82;42.55;97297.09;4968813;28;19926;-71
2022/02/28 09:12:38;;;;;;;;;;;15.40;28.90;;;10.10;41.64;97300.38;4949084;28;19933;-72
2022/02/28 09:15:05;;;;;;;;;;;15.60;28.40;;;10.30;40.94;97301.00;4950796;28;19926;-70
2022/02/28 09:17:32;;;;;;;;;;;15.80;28.20;;;10.42;40.49;97296.28;4983994;28;19960;-69
2022/02/28 09:19:58;;;;;;;;;;;15.90;27.60;;;10.63;40.74;97286.13;4968051;28;20305;-69
2022/02/28 09:22:24;;;;;;;;;;;16.20;27.50;;;10.88;40.52;97289.69;4970446;28;20317;-67
2022/02/28 09:24:50;;;;;;;;;;;16.50;27.50;;;11.14;39.88;97286.94;4988644;28;19944;-72
2022/02/28 09:27:15;;;;;;;;;;;16.60;27.30;;;11.40;39.68;97284.13;4955689;28;19932;-66
2022/02/28 09:29:41;;;;;;;;;;;16.90;26.90;;;11.59;39.72;97280.34;4974239;28;19926;-70
2022/02/28 09:32:07;;;;;;;;;;;17.00;26.10;;;11.70;39.41;97277.34;4972079;28;19922;-70
2022/02/28 09:34:33;;;;;;;;;;;17.40;26.20;;;11.81;38.29;97281.50;4988367;28;19922;-70
2022/02/28 09:36:59;;;;;;;;;;;17.60;25.60;;;11.96;38.91;97274.53;4954822;28;20294;-71
2022/02/28 09:39:25;;;;;;;;;;;18.10;25.30;;;12.12;39.49;97282.41;4956535;28;19926;-69
2022/02/28 09:41:50;;;;;;;;;;;18.50;24.20;;;12.26;38.30;97279.06;4973340;28;19932;-70
2022/02/28 09:44:16;;;;;;;;;;;18.70;24.40;;;12.40;37.97;97276.69;4955869;28;19929;-70
2022/02/28 09:46:43;;;;;;;;;;;19.10;23.90;;;12.58;37.13;97279.91;4952271;29;19942;-70
2022/02/28 09:49:08;;;;;;;;;;;19.60;23.00;;;12.75;37.65;97280.66;4965690;28;20401;-68
2022/02/28 09:51:34;;;;;;;;;;;19.90;22.70;;;12.91;36.97;97282.41;4972726;28;20005;-71
2022/02/28 09:54:00;;;;;;;;;;;20.40;22.30;;;13.10;36.82;97274.00;4972064;28;20414;-70
2022/02/28 09:56:26;;;;;;;;;;;20.90;22.00;;;13.35;37.29;97278.16;4971786;28;20021;-69
2022/02/28 09:58:51;;;;;;;;;;;21.80;21.30;;;13.59;35.98;97284.25;4975693;28;19918;-70
2022/02/28 10:01:17;;;;;;;;;;;22.80;20.20;;;13.93;38.50;97273.16;4972606;28;19930;-65
2022/02/28 10:03:43;;;;;;;;;;;23.50;19.30;;;14.27;36.48;97268.16;4973560;28;19922;-69
2022/02/28 10:06:08;;;;;;;;;;;23.50;19.00;;;14.78;37.34;97276.16;4954704;28;19922;-67
2022/02/28 10:08:48;;;;;;;;;;;24.60;18.30;;;15.28;35.59;97264.66;4971688;28;19922;-69
2022/02/28 10:11:34;;;;;;;;;;;25.00;17.80;;;15.86;36.00;97252.09;4967331;28;20305;-67
2022/02/28 10:14:01;;;;;;;;;;;26.20;16.70;;;16.40;35.00;97259.34;4971430;28;20305;-67
2022/02/28 10:16:44;;;;;;;;;;;27.10;16.00;;;16.98;35.34;97253.66;4986292;28;19957;-66
2022/02/28 10:19:28;;;;;;;;;;;28.30;15.70;;;17.51;34.16;97254.56;4970767;28;19948;-68
2022/02/28 10:21:56;;;;;;;;;;;28.50;15.20;;;17.90;34.80;97248.44;4967687;28;20587;-66
2022/02/28 10:24:38;;;;;;;;;;;29.30;14.40;;;18.33;34.08;97262.06;4960644;28;19973;-68
2022/02/28 10:27:04;;;;;;;;;;;30.40;14.10;;;18.90;32.95;97255.09;4971171;28;19989;-69
2022/02/28 10:29:32;;;;;;;;;;;31.20;13.80;;;19.35;34.01;97255.03;4971956;28;20287;-68
2022/02/28 10:32:03;;;;;;;;;;;31.60;13.40;;;19.82;32.80;97242.16;4955171;28;19926;-68
2022/02/28 10:34:30;;;;;;;;;;;32.20;13.00;;;20.24;31.17;97239.69;4969903;28;20416;-71
2022/02/28 10:36:55;;;;;;;;;;;32.70;12.80;;;20.40;31.86;97244.47;4962931;28;19922;-69
2022/02/28 10:39:22;;;;;;;;;;;32.70;12.20;;;20.66;33.13;97240.69;4969905;28;19922;-69
2022/02/28 10:41:48;;;;;;;;;;;32.90;12.50;;;20.94;31.35;97237.44;4966721;28;20037;-69
2022/02/28 10:44:13;;;;;;;;;;;33.40;12.00;;;21.19;32.45;97239.97;4971706;28;20279;-67
2022/02/28 10:46:42;;;;;;;;;;;33.40;11.90;;;21.53;31.49;97233.09;4971529;28;19960;-69
2022/02/28 10:49:09;;;;;;;;;;;33.90;11.70;;;21.84;31.06;97230.09;4971199;28;20017;-70
2022/02/28 10:51:51;;;;;;;;;;;34.00;11.50;;;22.10;30.70;97234.19;4972330;28;20350;-73
2022/02/28 10:54:25;;;;;;;;;;;34.20;11.70;;;22.28;29.80;97230.56;4972093;28;19922;-73
2022/02/28 10:56:51;;;;;;;;;;;34.60;11.00;;;22.47;29.68;97233.91;4970199;28;19926;-72
2022/02/28 10:59:17;;;;;;;;;;;34.30;11.00;;;22.60;30.43;97237.13;4970816;28;19976;-70
2022/02/28 11:01:43;;;;;;;;;;;34.90;10.90;;;22.70;30.21;97227.66;4970699;28;20255;-67
2022/02/28 11:04:08;;;;;;;;;;;34.80;10.70;;;22.95;29.44;97235.44;4970454;28;19945;-70
2022/02/28 11:06:34;;;;;;;;;;;34.90;10.40;;;23.21;29.50;97241.00;4971488;28;20009;-67
2022/02/28 11:09:00;;;;;;;;;;;35.00;10.60;;;23.41;28.62;97250.50;4966650;28;19930;-70
2022/02/28 11:11:25;;;;;;;;;;;35.10;10.60;;;23.45;29.00;97251.63;4962345;28;20491;-70
2022/02/28 11:13:51;;;;;;;;;;;35.30;10.50;;;23.77;29.36;97241.19;4971983;28;19918;-68
2022/02/28 11:16:17;;;;;;;;;;;35.60;10.20;;;23.96;27.09;97226.41;4953559;28;20353;-68
2022/02/28 11:18:43;;;;;;;;;;;36.00;9.90;;;24.10;29.05;97232.25;4970526;28;19918;-72